Time;durP1;ratioP1;P1;durP2;ratioP2;P2;SDS_P1;SDS_P2;PMS_P1;PMS_P2;Temp;Humidity;BMP_temperature;BMP_pressure;BME280_temperature;BME280_humidity;BME280_pressure;Samples;Min_cycle;Max_cycle;Signal;HPM_P1;HPM_P2
2024/01/18 00:03:47;;;;;;;5.22;3.28;;;;;;;17.61;45.12;99111.19;10415268;28;20400;-52
2024/01/18 00:08:47;;;;;;;4.23;2.87;;;;;;;17.61;44.19;99120.00;10415304;28;20045;-53
2024/01/18 00:13:48;;;;;;;4.50;3.17;;;;;;;17.58;44.44;99131.41;10455245;28;20295;-52
2024/01/18 00:18:48;;;;;;;4.68;3.15;;;;;;;17.61;44.29;99148.72;10456222;28;20025;-54
2024/01/18 00:23:48;;;;;;;4.63;3.00;;;;;;;17.66;44.01;99135.13;10455666;28;20029;-54
2024/01/18 00:28:49;;;;;;;4.87;3.30;;;;;;;17.61;45.12;99146.81;10454487;28;20291;-53
2024/01/18 00:33:49;;;;;;;5.23;2.93;;;;;;;17.58;44.92;99152.06;10425616;28;20292;-54
2024/01/18 00:38:49;;;;;;;5.28;3.00;;;;;;;17.56;44.07;99156.97;10414472;28;20287;-55
2024/01/18 00:43:50;;;;;;;6.20;3.07;;;;;;;17.58;45.05;99165.47;10413761;28;20021;-53
2024/01/18 00:48:50;;;;;;;3.70;3.03;;;;;;;17.64;44.12;99164.13;10414207;28;20276;-54
2024/01/18 00:53:50;;;;;;;4.00;2.87;;;;;;;17.61;44.88;99173.63;10413333;28;20021;-54
2024/01/18 00:58:51;;;;;;;4.47;3.23;;;;;;;17.60;44.17;99166.69;10413368;28;20268;-52
2024/01/18 01:03:51;;;;;;;4.88;3.40;;;;;;;17.61;43.35;99184.34;10412818;28;20276;-54
2024/01/18 01:08:51;;;;;;;3.80;2.93;;;;;;;17.60;43.81;99200.75;10412621;28;20056;-54
2024/01/18 01:13:52;;;;;;;3.37;2.70;;;;;;;17.61;43.67;99205.78;10453046;28;20348;-54
2024/01/18 01:18:52;;;;;;;5.23;3.20;;;;;;;17.61;43.95;99203.09;10454083;28;20408;-54
2024/01/18 01:23:54;;;;;;;4.33;2.93;;;;;;;17.64;43.77;99204.34;10453304;28;20322;-54
2024/01/18 01:28:54;;;;;;;8.38;3.25;;;;;;;17.59;43.64;99208.00;10453675;28;20627;-53
2024/01/18 01:33:54;;;;;;;4.70;2.97;;;;;;;17.57;43.99;99202.19;10424885;28;20025;-54
2024/01/18 01:38:54;;;;;;;4.63;3.13;;;;;;;17.56;44.61;99210.56;10411683;28;20280;-54
2024/01/18 01:43:58;;;;;;;4.23;3.40;;;;;;;17.62;43.54;99225.31;10410428;28;20272;-54
2024/01/18 01:49:03;;;;;;;4.70;3.42;;;;;;;17.61;43.15;99223.75;10411770;28;20362;-54
2024/01/18 01:54:04;;;;;;;3.90;2.88;;;;;;;17.60;44.07;99227.56;10411010;28;20065;-53
2024/01/18 01:59:08;;;;;;;4.05;3.40;;;;;;;17.61;44.66;99224.53;10411273;28;20025;-53
2024/01/18 02:04:08;;;;;;;4.70;3.10;;;;;;;17.60;44.27;99235.59;10424093;28;20025;-54
2024/01/18 02:09:10;;;;;;;4.45;2.92;;;;;;;17.60;43.41;99240.94;10410751;28;20053;-54
2024/01/18 02:14:11;;;;;;;3.58;2.55;;;;;;;17.60;42.87;99241.75;10408771;28;20091;-55
2024/01/18 02:19:11;;;;;;;4.90;3.00;;;;;;;17.61;43.09;99248.66;10409999;28;20072;-53
2024/01/18 02:24:19;;;;;;;4.18;2.70;;;;;;;17.58;43.85;99251.22;10415423;28;20025;-54
2024/01/18 02:29:19;;;;;;;4.72;2.70;;;;;;;17.57;43.04;99265.72;10399024;28;20449;-53
2024/01/18 02:34:20;;;;;;;3.87;2.33;;;;;;;17.60;42.99;99260.50;10418731;28;20030;-54
2024/01/18 02:39:20;;;;;;;4.68;3.35;;;;;;;17.58;42.56;99264.63;10409595;28;20316;-53
2024/01/18 02:44:21;;;;;;;4.82;3.30;;;;;;;17.56;42.78;99248.88;10409103;28;20018;-54
2024/01/18 02:49:21;;;;;;;3.65;2.50;;;;;;;17.59;42.39;99255.47;10409443;28;20029;-55
2024/01/18 02:54:21;;;;;;;4.10;2.70;;;;;;;17.60;43.28;99257.03;10408639;28;20040;-54
2024/01/18 02:59:22;;;;;;;4.85;2.75;;;;;;;17.56;43.75;99248.88;10409474;28;20421;-53
2024/01/18 03:04:22;;;;;;;4.55;3.10;;;;;;;17.57;43.84;99246.97;10408751;28;20045;-53
2024/01/18 03:09:23;;;;;;;6.03;3.23;;;;;;;17.59;43.00;99264.28;10412966;28;20060;-55
2024/01/18 03:14:23;;;;;;;4.97;3.10;;;;;;;17.56;43.91;99253.44;10430732;28;20291;-54
2024/01/18 03:19:23;;;;;;;5.50;3.00;;;;;;;17.53;43.73;99261.03;10408721;28;20029;-52
2024/01/18 03:24:24;;;;;;;3.90;2.83;;;;;;;17.57;42.83;99268.41;10408647;28;20295;-54
2024/01/18 03:29:24;;;;;;;4.75;2.70;;;;;;;17.54;42.45;99270.63;10408716;28;20291;-54
2024/01/18 03:34:24;;;;;;;5.10;4.03;;;;;;;17.53;43.21;99269.06;10416524;28;20026;-53
2024/01/18 03:39:24;;;;;;;3.90;2.47;;;;;;;17.57;42.14;99258.47;10416632;28;20278;-54
2024/01/18 03:44:25;;;;;;;3.83;2.30;;;;;;;17.56;42.21;99264.16;10410777;28;20272;-53
2024/01/18 03:49:25;;;;;;;3.67;2.50;;;;;;;17.54;43.58;99275.22;10408681;28;20275;-54
2024/01/18 03:54:26;;;;;;;4.35;2.63;;;;;;;17.55;42.26;99290.19;10407730;28;20284;-54
2024/01/18 03:59:26;;;;;;;5.38;3.35;;;;;;;17.58;42.74;99291.41;10407999;28;20330;-54
2024/01/18 04:04:27;;;;;;;5.40;3.80;;;;;;;17.50;42.52;99291.13;10407531;28;20021;-53
2024/01/18 04:09:27;;;;;;;4.50;2.45;;;;;;;17.54;43.10;99294.75;10418803;28;20337;-54
2024/01/18 04:14:28;;;;;;;4.77;2.90;;;;;;;17.53;43.20;99289.72;10456279;28;20461;-55
2024/01/18 04:19:28;;;;;;;4.15;2.40;;;;;;;17.52;43.18;99290.81;10456410;28;20287;-55
2024/01/18 04:24:28;;;;;;;4.13;2.90;;;;;;;17.53;42.45;99295.88;10456097;28;20025;-55
2024/01/18 04:29:29;;;;;;;3.83;2.67;;;;;;;17.50;42.83;99301.84;10455966;28;20278;-55
2024/01/18 04:34:29;;;;;;;5.32;3.10;;;;;;;17.49;42.76;99305.63;10414464;28;20635;-54
2024/01/18 04:39:30;;;;;;;3.72;3.03;;;;;;;17.57;42.43;99316.66;10416296;28;20032;-54
2024/01/18 04:44:30;;;;;;;4.50;2.60;;;;;;;17.67;42.33;99324.34;10431766;28;20475;-55
2024/01/18 04:49:30;;;;;;;5.57;3.57;;;;;;;17.71;43.32;99331.44;10425123;28;20340;-54
2024/01/18 04:54:32;;;;;;;4.53;2.50;;;;;;;17.68;43.23;99329.38;10423472;28;20725;-54
2024/01/18 04:59:32;;;;;;;5.78;2.92;;;;;;;17.74;43.81;99335.34;10413038;28;20516;-54
2024/01/18 05:04:33;;;;;;;3.83;2.40;;;;;;;17.60;42.70;99346.25;10409839;28;20075;-53
2024/01/18 05:09:33;;;;;;;4.20;2.20;;;;;;;17.62;42.86;99345.94;10414096;28;20045;-53
2024/01/18 05:14:33;;;;;;;4.57;2.10;;;;;;;17.54;44.24;99350.25;10444263;28;20287;-55
2024/01/18 05:19:33;;;;;;;8.05;2.83;;;;;;;17.49;42.98;99353.09;10411384;28;20040;-53
2024/01/18 05:24:34;;;;;;;6.00;3.08;;;;;;;17.48;44.47;99354.19;10418797;28;20079;-54
2024/01/18 05:29:34;;;;;;;4.03;2.17;;;;;;;17.46;42.82;99361.78;10421657;28;20032;-54
2024/01/18 05:34:34;;;;;;;3.83;2.40;;;;;;;17.49;42.54;99366.47;10418064;28;20032;-53
2024/01/18 05:39:35;;;;;;;3.60;2.30;;;;;;;17.51;43.95;99380.34;10412193;28;20051;-54
2024/01/18 05:44:35;;;;;;;4.13;3.00;;;;;;;17.48;43.82;99381.00;10411871;28;20815;-54
2024/01/18 05:49:36;;;;;;;4.40;2.85;;;;;;;17.49;44.00;99390.59;10411198;28;20269;-55
2024/01/18 05:54:36;;;;;;;3.55;2.20;;;;;;;17.50;43.20;99390.28;10411617;28;20041;-51
2024/01/18 05:59:37;;;;;;;4.95;2.97;;;;;;;17.54;42.67;99401.94;10410907;28;20022;-53
2024/01/18 06:04:37;;;;;;;7.80;3.63;;;;;;;17.73;42.57;99404.28;10411226;28;20025;-53
2024/01/18 06:09:37;;;;;;;13.87;2.90;;;;;;;17.64;44.60;99413.41;10416763;28;20048;-54
2024/01/18 06:14:38;;;;;;;9.30;2.67;;;;;;;17.64;44.60;99413.41;10451776;28;20295;-53
2024/01/18 06:19:38;;;;;;;8.05;3.35;;;;;;;17.57;45.88;99423.84;10451313;28;20276;-54
2024/01/18 06:24:38;;;;;;;7.63;2.80;;;;;;;17.59;45.52;99433.16;10451531;28;20013;-53
2024/01/18 06:29:39;;;;;;;5.67;2.83;;;;;;;17.48;45.53;99439.94;10429089;28;20287;-51
2024/01/18 06:34:40;;;;;;;11.63;2.92;;;;;;;17.52;44.83;99451.59;10436448;28;20310;-49
2024/01/18 06:39:40;;;;;;;9.43;3.28;;;;;;;17.51;44.20;99453.50;10434317;28;20468;-54
2024/01/18 06:44:44;;;;;;;6.73;2.60;;;;;;;17.54;44.07;99463.59;10425003;28;20584;-56
2024/01/18 06:49:45;;;;;;;7.85;3.38;;;;;;;17.38;44.80;99469.75;10415779;28;20303;-56
2024/01/18 06:54:45;;;;;;;9.60;2.78;;;;;;;17.28;45.41;99478.09;10409461;28;20120;-55
2024/01/18 06:59:46;;;;;;;12.03;3.67;;;;;;;17.36;44.77;99471.97;10408831;28;20075;-54
2024/01/18 07:04:46;;;;;;;8.52;2.97;;;;;;;17.36;44.30;99496.09;10408892;28;20796;-53
2024/01/18 07:09:47;;;;;;;11.33;3.80;;;;;;;17.35;44.18;99511.38;10415920;28;20055;-55
2024/01/18 07:14:47;;;;;;;8.57;3.67;;;;;;;17.24;44.07;99512.78;10449832;28;20299;-57
2024/01/18 07:19:50;;;;;;;12.10;3.63;;;;;;;17.22;43.87;99512.31;10448136;28;20362;-56
2024/01/18 07:24:50;;;;;;;7.53;3.72;;;;;;;17.32;42.66;99520.03;10449341;28;20063;-57
2024/01/18 07:29:50;;;;;;;12.17;2.93;;;;;;;17.35;43.16;99527.44;10426451;28;20103;-56
2024/01/18 07:34:51;;;;;;;9.15;2.83;;;;;;;17.29;42.63;99538.66;10413017;28;20366;-56
2024/01/18 07:39:51;;;;;;;7.50;3.93;;;;;;;17.35;43.09;99540.84;10448628;28;20025;-56
2024/01/18 07:44:52;;;;;;;5.68;3.20;;;;;;;17.33;43.36;99532.34;10440088;28;20731;-55
2024/01/18 07:49:52;;;;;;;7.03;2.90;;;;;;;17.37;42.41;99549.34;10415309;28;20451;-55
2024/01/18 07:54:52;;;;;;;7.27;3.50;;;;;;;17.37;43.24;99549.34;10414340;28;20581;-55
2024/01/18 07:59:53;;;;;;;8.10;3.33;;;;;;;17.41;42.41;99557.56;10414696;28;20279;-55
2024/01/18 08:04:53;;;;;;;6.03;3.30;;;;;;;17.49;41.40;99560.22;10414470;28;20260;-55
2024/01/18 08:09:53;;;;;;;6.40;2.70;;;;;;;17.46;42.66;99576.16;10422211;28;20041;-55
2024/01/18 08:14:54;;;;;;;4.55;2.75;;;;;;;17.40;41.74;99582.75;10455566;28;20295;-56
2024/01/18 08:19:54;;;;;;;6.68;2.63;;;;;;;17.33;42.88;99603.88;10454841;28;20025;-56
2024/01/18 08:24:56;;;;;;;5.55;2.50;;;;;;;17.31;42.22;99600.75;10455314;28;20039;-55
2024/01/18 08:29:58;;;;;;;7.05;2.92;;;;;;;17.27;42.82;99613.94;10457249;28;20048;-55
2024/01/18 08:34:58;;;;;;;4.32;2.47;;;;;;;17.31;42.56;99627.53;10412006;28;20108;-56
2024/01/18 08:39:59;;;;;;;4.23;2.80;;;;;;;17.29;42.65;99633.22;10411588;28;20018;-56
2024/01/18 08:44:59;;;;;;;5.65;3.03;;;;;;;17.29;41.42;99643.94;10413348;28;20268;-56
2024/01/18 08:50:00;;;;;;;8.93;3.33;;;;;;;17.33;41.23;99649.44;10411289;28;20021;-56
2024/01/18 08:55:01;;;;;;;4.73;3.17;;;;;;;17.31;41.76;99657.78;10412063;28;20284;-56
2024/01/18 09:00:02;;;;;;;5.35;2.67;;;;;;;17.33;42.18;99660.94;10412324;28;20350;-55
2024/01/18 09:05:03;;;;;;;9.23;3.20;;;;;;;17.30;42.38;99674.97;10412183;28;20087;-55
2024/01/18 09:10:04;;;;;;;4.85;2.92;;;;;;;17.30;42.26;99676.88;10421468;28;20095;-56
2024/01/18 09:15:05;;;;;;;3.92;3.22;;;;;;;17.27;42.31;99686.28;10453161;28;20028;-54
2024/01/18 09:20:06;;;;;;;4.18;2.63;;;;;;;17.19;41.64;99693.22;10452703;28;20088;-55
2024/01/18 09:25:07;;;;;;;5.00;3.90;;;;;;;17.09;43.33;99703.41;10452563;28;20021;-55
2024/01/18 09:30:08;;;;;;;4.35;3.13;;;;;;;17.03;43.87;99708.09;10455409;28;20017;-56
2024/01/18 09:35:09;;;;;;;4.65;2.70;;;;;;;17.00;43.11;99716.78;10410906;28;20264;-55
2024/01/18 09:40:11;;;;;;;2.93;1.97;;;;;;;17.00;44.34;99730.16;10410757;28;20036;-56
2024/01/18 09:45:13;;;;;;;3.45;2.13;;;;;;;16.97;45.09;99741.50;10409487;28;20276;-54
2024/01/18 09:50:14;;;;;;;5.18;2.25;;;;;;;16.94;45.32;99745.59;10408791;28;20028;-54
2024/01/18 09:55:15;;;;;;;5.60;2.60;;;;;;;16.97;45.20;99760.25;10408842;28;20029;-55
2024/01/18 10:00:16;;;;;;;3.85;2.20;;;;;;;16.97;45.02;99773.63;10409667;28;20047;-55
2024/01/18 10:05:17;;;;;;;3.28;2.22;;;;;;;16.97;45.76;99789.69;10408453;28;20025;-55
2024/01/18 10:10:18;;;;;;;3.22;2.67;;;;;;;16.99;44.65;99795.53;10420943;28;20128;-55
2024/01/18 10:15:32;;;;;;;3.80;1.95;;;;;;;17.01;45.42;99806.72;10450445;28;20028;-54
2024/01/18 10:20:33;;;;;;;3.45;2.22;;;;;;;17.03;45.88;99819.81;10450436;28;20029;-55
2024/01/18 10:25:33;;;;;;;4.57;2.50;;;;;;;17.03;45.88;99823.28;10450620;28;20017;-55
2024/01/18 10:30:36;;;;;;;3.95;2.63;;;;;;;17.01;45.23;99835.38;10448872;28;20017;-56
2024/01/18 10:35:36;;;;;;;6.13;2.50;;;;;;;16.99;45.19;99845.63;10408854;28;20021;-54
2024/01/18 10:40:37;;;;;;;3.58;2.00;;;;;;;16.93;45.41;99851.13;10408398;28;20025;-55
2024/01/18 10:45:37;;;;;;;3.60;2.30;;;;;;;16.91;45.93;99853.28;10408358;28;20033;-55
2024/01/18 10:50:38;;;;;;;4.00;2.57;;;;;;;16.86;45.93;99848.06;10408335;28;20021;-53
2024/01/18 10:55:39;;;;;;;2.22;1.50;;;;;;;16.86;46.72;99853.41;10407270;28;20299;-55
2024/01/18 11:00:39;;;;;;;2.77;2.07;;;;;;;16.83;46.09;99858.59;10407570;28;20449;-54
2024/01/18 11:05:40;;;;;;;3.67;2.23;;;;;;;16.82;47.42;99863.16;10408203;28;20338;-55
2024/01/18 11:10:41;;;;;;;3.53;2.00;;;;;;;16.81;46.70;99872.28;10422299;28;20299;-56
2024/01/18 11:15:44;;;;;;;2.83;1.65;;;;;;;16.78;45.99;99864.06;10451396;28;20033;-55
2024/01/18 11:21:08;;;;;;;4.10;1.95;;;;;;;16.77;47.39;99876.66;10443902;28;20033;-56
2024/01/18 11:26:18;;;;;;;2.88;1.48;;;;;;;16.75;45.87;99880.72;10421343;28;20056;-55
2024/01/18 11:31:19;;;;;;;3.78;1.80;;;;;;;16.71;47.24;99885.13;10428937;28;20358;-55
2024/01/18 11:36:19;;;;;;;3.23;2.03;;;;;;;16.69;47.69;99898.78;10421151;28;20025;-55
2024/01/18 11:41:21;;;;;;;2.45;1.48;;;;;;;16.68;47.50;99902.56;10420483;28;20276;-55
2024/01/18 11:46:39;;;;;;;2.67;1.65;;;;;;;16.69;47.07;99895.31;10419956;28;20115;-56
2024/01/18 11:51:40;;;;;;;2.65;1.48;;;;;;;16.68;47.66;99910.56;10420356;28;20033;-56
2024/01/18 11:56:42;;;;;;;2.55;1.70;;;;;;;16.66;47.10;99923.44;10420779;28;20064;-55
2024/01/18 12:01:43;;;;;;;4.20;1.98;;;;;;;16.67;46.92;99931.19;10419112;28;20059;-56
2024/01/18 12:06:43;;;;;;;2.33;1.33;;;;;;;16.66;46.21;99926.91;10420629;28;20370;-56
2024/01/18 12:11:46;;;;;;;2.47;1.48;;;;;;;16.67;47.46;99949.94;10443622;28;20295;-56
2024/01/18 12:16:46;;;;;;;2.25;1.88;;;;;;;16.71;47.26;99941.34;10461496;28;20029;-56
2024/01/18 12:21:46;;;;;;;3.97;2.22;;;;;;;16.71;47.26;99958.19;10461222;28;20032;-55
2024/01/18 12:26:47;;;;;;;2.60;1.80;;;;;;;16.72;47.08;99965.13;10459394;28;20452;-55
2024/01/18 12:31:47;;;;;;;2.28;1.40;;;;;;;16.73;46.38;99973.94;10455752;28;20275;-56
2024/01/18 12:36:48;;;;;;;2.75;1.40;;;;;;;16.74;46.19;99975.53;10413352;28;20170;-57
2024/01/18 12:41:53;;;;;;;2.83;1.30;;;;;;;16.72;47.63;99973.16;10412955;28;20029;-56
2024/01/18 12:46:58;;;;;;;2.90;1.30;;;;;;;16.71;48.11;99984.16;10414090;28;20105;-56
2024/01/18 12:51:59;;;;;;;1.50;1.20;;;;;;;16.65;47.96;99994.94;10412115;28;20083;-56
2024/01/18 12:57:04;;;;;;;1.50;1.23;;;;;;;16.60;47.90;100008.44;10412917;28;20144;-56
2024/01/18 13:02:05;;;;;;;2.50;1.55;;;;;;;16.54;48.34;100001.56;10412395;28;20438;-56
2024/01/18 13:07:11;;;;;;;3.08;1.30;;;;;;;16.47;48.49;100001.19;10412603;28;20469;-56
2024/01/18 13:12:12;;;;;;;2.28;1.13;;;;;;;16.41;48.73;100010.41;10438834;28;20045;-56
2024/01/18 13:17:18;;;;;;;2.17;1.13;;;;;;;16.34;46.93;100018.06;10453109;28;20025;-56
2024/01/18 13:22:19;;;;;;;2.42;1.17;;;;;;;16.28;48.44;100030.72;10452951;28;20441;-55
2024/01/18 13:27:19;;;;;;;2.15;1.23;;;;;;;16.22;47.21;100036.44;10451410;28;20017;-56
2024/01/18 13:32:20;;;;;;;2.53;1.10;;;;;;;16.22;48.81;100052.50;10436615;28;20037;-56
2024/01/18 13:37:20;;;;;;;2.57;1.30;;;;;;;16.24;47.29;100045.00;10411387;28;20117;-56
2024/01/18 13:42:21;;;;;;;2.38;1.27;;;;;;;16.27;48.13;100068.47;10401850;28;20311;-56
2024/01/18 13:47:21;;;;;;;1.90;1.08;;;;;;;16.32;48.02;100071.84;10410832;28;20570;-56
2024/01/18 13:52:22;;;;;;;1.70;0.80;;;;;;;16.37;47.93;100081.66;10410143;28;20025;-57
2024/01/18 13:57:22;;;;;;;1.27;1.15;;;;;;;16.35;48.24;100103.38;10409149;28;20283;-56
2024/01/18 14:02:24;;;;;;;1.83;0.88;;;;;;;16.40;47.99;100110.50;10408359;28;20457;-56
2024/01/18 14:07:24;;;;;;;1.70;0.95;;;;;;;16.45;46.49;100120.31;10409795;28;20469;-56
2024/01/18 14:12:24;;;;;;;1.17;0.70;;;;;;;16.48;46.88;100135.78;10438383;28;20049;-55
2024/01/18 14:17:25;;;;;;;2.27;1.43;;;;;;;16.48;47.13;100141.16;10450949;28;20025;-57
2024/01/18 14:22:25;;;;;;;1.73;1.00;;;;;;;16.47;47.37;100153.72;10450027;28;20271;-56
2024/01/18 14:27:25;;;;;;;1.10;0.90;;;;;;;16.50;47.66;100163.03;10450569;28;20277;-56
2024/01/18 14:32:26;;;;;;;1.23;0.90;;;;;;;16.51;46.62;100172.66;10433097;28;20366;-56
2024/01/18 14:37:26;;;;;;;1.77;0.80;;;;;;;16.50;46.17;100190.59;10408931;28;20076;-57
2024/01/18 14:42:26;;;;;;;1.42;0.70;;;;;;;16.55;46.95;100197.72;10408505;28;20034;-56
2024/01/18 14:47:29;;;;;;;1.87;0.93;;;;;;;16.52;46.74;100212.50;10408634;28;20021;-56
2024/01/18 14:52:29;;;;;;;1.65;0.95;;;;;;;16.54;46.78;100218.34;10407779;28;20264;-56
2024/01/18 14:57:29;;;;;;;2.57;1.53;;;;;;;16.53;46.45;100230.16;10408105;28;20025;-57
2024/01/18 15:02:31;;;;;;;3.30;0.80;;;;;;;16.53;46.24;100246.22;10408007;28;20283;-56
2024/01/18 15:07:31;;;;;;;1.55;1.00;;;;;;;16.56;46.34;100263.56;10408167;28;20431;-56
2024/01/18 15:12:31;;;;;;;1.60;0.77;;;;;;;16.52;46.58;100278.63;10437824;28;20106;-56
2024/01/18 15:17:32;;;;;;;2.13;1.20;;;;;;;16.56;47.22;100284.97;10431250;28;20404;-55
2024/01/18 15:22:32;;;;;;;2.27;1.47;;;;;;;16.59;45.25;100301.25;10407429;28;20283;-56
2024/01/18 15:27:32;;;;;;;2.10;1.13;;;;;;;16.61;45.04;100307.09;10408091;28;20276;-55
2024/01/18 15:32:33;;;;;;;1.20;0.60;;;;;;;16.63;45.62;100317.53;10415106;28;20034;-56
2024/01/18 15:37:34;;;;;;;1.58;0.93;;;;;;;16.64;45.94;100325.25;10407004;28;20280;-56
2024/01/18 15:42:34;;;;;;;2.27;0.87;;;;;;;16.69;45.98;100345.81;10413975;28;20396;-56
2024/01/18 15:47:40;;;;;;;1.80;0.90;;;;;;;16.67;45.19;100362.16;10408884;28;20288;-56
2024/01/18 15:52:41;;;;;;;2.00;0.80;;;;;;;16.73;45.38;100362.13;10405397;28;20061;-56
2024/01/18 15:57:41;;;;;;;1.07;0.60;;;;;;;16.80;44.21;100379.38;10406918;28;20115;-56
2024/01/18 16:02:41;;;;;;;2.40;0.77;;;;;;;16.82;44.56;100397.84;10417295;28;20822;-55
2024/01/18 16:07:43;;;;;;;1.58;0.60;;;;;;;16.91;44.17;100404.91;10414806;28;20291;-57
2024/01/18 16:12:43;;;;;;;0.90;0.60;;;;;;;16.87;44.82;100417.31;10445295;28;20562;-57
2024/01/18 16:17:44;;;;;;;2.08;0.77;;;;;;;16.87;43.78;100435.25;10455622;28;20025;-57
2024/01/18 16:22:44;;;;;;;2.40;1.37;;;;;;;16.91;44.53;100452.31;10455560;28;20025;-57
2024/01/18 16:27:45;;;;;;;1.77;0.60;;;;;;;16.93;44.67;100461.69;10445933;28;20272;-56
2024/01/18 16:32:46;;;;;;;2.08;1.02;;;;;;;17.02;44.27;100469.03;10442566;28;20330;-56
2024/01/18 16:37:46;;;;;;;1.77;0.80;;;;;;;16.93;44.26;100483.13;10420991;28;20351;-56
2024/01/18 16:42:47;;;;;;;1.50;0.70;;;;;;;17.00;44.47;100498.81;10414234;28;20033;-57
2024/01/18 16:47:47;;;;;;;1.52;0.95;;;;;;;16.94;44.91;100511.47;10410914;28;20268;-55
2024/01/18 16:52:48;;;;;;;2.67;0.77;;;;;;;17.01;44.59;100516.47;10410798;28;20021;-57
2024/01/18 16:57:48;;;;;;;2.53;1.17;;;;;;;17.03;44.43;100525.00;10409151;28;20276;-56
2024/01/18 17:02:48;;;;;;;1.63;0.70;;;;;;;16.98;44.64;100535.78;10410393;28;20025;-56
2024/01/18 17:07:49;;;;;;;1.70;0.83;;;;;;;17.04;43.27;100537.31;10408422;28;20363;-56
2024/01/18 17:12:50;;;;;;;2.50;1.03;;;;;;;17.11;43.02;100540.44;10442873;28;20709;-57
2024/01/18 17:17:51;;;;;;;2.28;1.27;;;;;;;17.08;42.67;100558.97;10451061;28;20378;-55
2024/01/18 17:22:51;;;;;;;2.03;1.15;;;;;;;17.07;44.11;100568.09;10450847;28;20494;-57
2024/01/18 17:27:51;;;;;;;7.43;2.03;;;;;;;16.95;43.78;100577.34;10450502;28;20029;-55
2024/01/18 17:32:52;;;;;;;9.27;1.93;;;;;;;16.95;44.62;100576.56;10430328;28;20459;-53
2024/01/18 17:37:52;;;;;;;11.07;2.50;;;;;;;17.34;48.60;100591.56;10408796;28;20342;-53
2024/01/18 17:42:52;;;;;;;9.07;2.03;;;;;;;17.38;48.12;100608.66;10409008;28;20276;-53
2024/01/18 17:47:53;;;;;;;3.47;1.45;;;;;;;17.25;46.95;100619.00;10408475;28;20323;-53
2024/01/18 17:52:53;;;;;;;8.57;2.03;;;;;;;17.29;48.20;100618.44;10407841;28;20412;-55
2024/01/18 17:57:53;;;;;;;10.67;2.13;;;;;;;17.14;47.68;100625.56;10407892;28;20280;-53
2024/01/18 18:02:54;;;;;;;12.43;1.67;;;;;;;17.05;47.62;100627.31;10411341;28;20742;-52
2024/01/18 18:07:55;;;;;;;11.73;2.63;;;;;;;17.03;47.42;100640.19;10407101;28;20072;-53
2024/01/18 18:12:56;;;;;;;5.82;1.92;;;;;;;16.92;45.92;100644.84;10440721;28;20048;-54
2024/01/18 18:17:57;;;;;;;12.90;2.50;;;;;;;16.96;45.86;100653.13;10449793;28;20024;-53
2024/01/18 18:22:58;;;;;;;6.88;1.60;;;;;;;16.99;45.96;100651.75;10440883;28;20374;-53
2024/01/18 18:27:58;;;;;;;8.48;2.03;;;;;;;17.05;46.87;100667.50;10429232;28;20028;-53
2024/01/18 18:32:58;;;;;;;5.43;1.73;;;;;;;17.06;46.72;100668.31;10431705;28;20043;-52
2024/01/18 18:37:59;;;;;;;8.63;1.58;;;;;;;17.02;45.98;100688.69;10447588;28;20743;-53
2024/01/18 18:42:59;;;;;;;7.40;2.10;;;;;;;17.06;46.37;100700.44;10408049;28;20483;-50
2024/01/18 18:48:00;;;;;;;7.07;1.70;;;;;;;17.12;45.27;100705.44;10425284;28;20276;-51
2024/01/18 18:53:00;;;;;;;4.40;1.60;;;;;;;17.16;45.08;100709.13;10407855;28;20132;-54
2024/01/18 18:58:00;;;;;;;6.03;2.45;;;;;;;17.25;44.60;100714.66;10420627;28;20366;-53
2024/01/18 19:03:01;;;;;;;16.48;2.92;;;;;;;17.34;44.85;100730.94;10422139;28;20082;-52
2024/01/18 19:08:02;;;;;;;4.80;1.70;;;;;;;17.35;45.37;100741.34;10428757;28;20116;-53
2024/01/18 19:13:04;;;;;;;5.22;1.45;;;;;;;17.46;44.41;100750.06;10440510;28;20419;-54
2024/01/18 19:18:04;;;;;;;3.65;1.60;;;;;;;17.36;44.76;100759.03;10445065;28;20025;-53
2024/01/18 19:23:04;;;;;;;4.55;1.77;;;;;;;17.48;45.09;100766.66;10417263;28;20048;-54
2024/01/18 19:28:05;;;;;;;4.07;1.73;;;;;;;17.48;44.31;100774.72;10414855;28;20032;-54
2024/01/18 19:33:05;;;;;;;4.40;1.80;;;;;;;17.46;45.04;100791.09;10416600;28;20296;-54
2024/01/18 19:38:06;;;;;;;3.27;1.43;;;;;;;17.50;44.26;100791.28;10420193;28;20396;-53
2024/01/18 19:43:06;;;;;;;3.58;1.05;;;;;;;17.54;43.41;100800.38;10416864;28;20279;-54
2024/01/18 19:48:06;;;;;;;6.63;1.80;;;;;;;17.49;44.42;100809.25;10429326;28;20035;-52
2024/01/18 19:53:07;;;;;;;3.47;2.08;;;;;;;17.60;44.21;100817.19;10456482;28;20632;-54
2024/01/18 19:58:08;;;;;;;2.95;1.50;;;;;;;17.63;43.55;100814.72;10418073;28;20033;-54
2024/01/18 20:03:08;;;;;;;6.15;1.20;;;;;;;17.56;43.62;100822.34;10425075;28;20681;-54
2024/01/18 20:08:08;;;;;;;4.68;1.73;;;;;;;17.50;43.45;100843.03;10431184;28;20373;-53
2024/01/18 20:13:09;;;;;;;4.20;1.60;;;;;;;17.50;44.00;100836.88;10447733;28;20040;-52
2024/01/18 20:18:10;;;;;;;4.35;1.52;;;;;;;17.44;43.46;100846.06;10435225;28;20275;-53
2024/01/18 20:23:11;;;;;;;3.47;1.67;;;;;;;17.48;43.14;100852.44;10431904;28;20108;-54
2024/01/18 20:28:11;;;;;;;4.93;1.60;;;;;;;17.48;44.39;100853.25;10422503;28;20388;-53
2024/01/18 20:33:11;;;;;;;3.83;1.70;;;;;;;17.57;43.10;100866.84;10423485;28;20393;-53
2024/01/18 20:38:12;;;;;;;4.23;1.50;;;;;;;17.63;43.47;100870.25;10414312;28;20284;-54
2024/01/18 20:43:12;;;;;;;3.65;1.75;;;;;;;17.68;43.64;100884.41;10414667;28;20276;-51
2024/01/18 20:48:12;;;;;;;2.47;1.30;;;;;;;17.69;43.30;100888.72;10413280;28;20044;-53
2024/01/18 20:53:13;;;;;;;2.47;1.53;;;;;;;17.64;42.74;100888.75;10414072;28;20288;-53
2024/01/18 20:58:13;;;;;;;3.00;1.70;;;;;;;17.64;43.52;100894.13;10415750;28;20276;-54
2024/01/18 21:03:13;;;;;;;5.55;1.95;;;;;;;17.64;43.05;100912.06;10420753;28;20272;-54
2024/01/18 21:08:14;;;;;;;3.90;1.70;;;;;;;17.58;43.80;100919.38;10413253;28;20030;-52
2024/01/18 21:13:14;;;;;;;3.10;1.40;;;;;;;17.63;43.92;100918.50;10449037;28;20341;-54
2024/01/18 21:18:14;;;;;;;4.47;2.70;;;;;;;17.64;42.98;100920.09;10454061;28;20969;-54
2024/01/18 21:23:15;;;;;;;2.65;1.45;;;;;;;17.56;42.92;100934.94;10454331;28;20341;-53
2024/01/18 21:28:15;;;;;;;3.22;2.28;;;;;;;17.62;42.71;100946.41;10453672;28;20438;-49
2024/01/18 21:33:19;;;;;;;2.03;1.52;;;;;;;17.60;42.90;100956.63;10428648;28;20026;-54
2024/01/18 21:38:19;;;;;;;3.35;1.70;;;;;;;17.60;42.50;100952.06;10422256;28;20095;-51
2024/01/18 21:43:19;;;;;;;2.60;1.47;;;;;;;17.64;42.95;100957.66;10412099;28;20045;-49
2024/01/18 21:48:20;;;;;;;2.97;2.03;;;;;;;17.63;42.45;100956.06;10411799;28;20280;-52
2024/01/18 21:53:20;;;;;;;2.30;1.50;;;;;;;17.57;42.75;100963.34;10411805;28;20703;-53
2024/01/18 21:58:20;;;;;;;2.10;1.37;;;;;;;17.63;44.02;100970.25;10411364;28;20354;-53
2024/01/18 22:03:21;;;;;;;2.20;1.37;;;;;;;17.61;43.94;100968.94;10410322;28;20276;-53
2024/01/18 22:08:21;;;;;;;3.22;1.63;;;;;;;17.64;43.83;100979.09;10410941;28;20679;-53
2024/01/18 22:13:22;;;;;;;2.58;1.48;;;;;;;17.61;43.60;100985.84;10446550;28;20025;-51
2024/01/18 22:18:22;;;;;;;3.10;1.50;;;;;;;17.61;42.58;100990.41;10451801;28;20037;-52
2024/01/18 22:23:23;;;;;;;4.88;1.70;;;;;;;17.61;44.02;100993.06;10452176;28;20272;-50
2024/01/18 22:28:23;;;;;;;2.63;1.80;;;;;;;17.64;43.73;100992.50;10451268;28;20025;-54
2024/01/18 22:33:23;;;;;;;2.47;1.40;;;;;;;17.63;43.49;100996.28;10426839;28;20288;-53
2024/01/18 22:38:23;;;;;;;3.27;1.80;;;;;;;17.67;44.05;101005.38;10409733;28;20288;-52
2024/01/18 22:43:24;;;;;;;2.20;1.20;;;;;;;17.63;42.93;101020.41;10410002;28;20272;-53
2024/01/18 22:48:26;;;;;;;3.87;1.83;;;;;;;17.63;42.81;101031.94;10408149;28;20276;-52
2024/01/18 22:53:27;;;;;;;3.95;1.73;;;;;;;17.67;42.26;101032.19;10422878;28;20284;-54
2024/01/18 22:58:28;;;;;;;2.85;1.50;;;;;;;17.60;42.73;101035.19;10409086;28;20033;-52
2024/01/18 23:03:28;;;;;;;2.63;1.60;;;;;;;17.58;43.92;101048.06;10409216;28;20029;-53
2024/01/18 23:08:29;;;;;;;4.35;1.92;;;;;;;17.56;44.04;101042.19;10408484;28;20042;-54
2024/01/18 23:13:29;;;;;;;2.03;1.55;;;;;;;17.62;42.69;101043.75;10446769;28;20508;-53